sensor_id;sensor_type;location;lat;lon;timestamp;temperature;humidity
19952;DHT22;10137;49.406;19.484;2022-08-21T00:00:58;18.10;99.90
19952;DHT22;10137;49.406;19.484;2022-08-21T00:03:26;18.00;99.90
19952;DHT22;10137;49.406;19.484;2022-08-21T00:05:53;18.00;99.90
19952;DHT22;10137;49.406;19.484;2022-08-21T00:08:22;18.00;99.90
19952;DHT22;10137;49.406;19.484;2022-08-21T00:10:49;18.00;99.90
19952;DHT22;10137;49.406;19.484;2022-08-21T00:13:17;18.00;99.90
19952;DHT22;10137;49.406;19.484;2022-08-21T00:15:45;18.00;99.90
19952;DHT22;10137;49.406;19.484;2022-08-21T00:18:12;18.00;99.90
19952;DHT22;10137;49.406;19.484;2022-08-21T00:20:42;18.00;99.90
19952;DHT22;10137;49.406;19.484;2022-08-21T00:23:10;18.00;99.90
19952;DHT22;10137;49.406;19.484;2022-08-21T00:25:39;18.00;99.90
19952;DHT22;10137;49.406;19.484;2022-08-21T00:28:06;18.00;99.90
19952;DHT22;10137;49.406;19.484;2022-08-21T00:30:33;18.00;99.90
19952;DHT22;10137;49.406;19.484;2022-08-21T00:33:02;18.00;99.90
19952;DHT22;10137;49.406;19.484;2022-08-21T00:35:34;18.00;99.90
19952;DHT22;10137;49.406;19.484;2022-08-21T00:38:02;18.00;99.90
19952;DHT22;10137;49.406;19.484;2022-08-21T00:40:33;18.00;99.90
19952;DHT22;10137;49.406;19.484;2022-08-21T00:43:03;18.00;99.90
19952;DHT22;10137;49.406;19.484;2022-08-21T00:45:32;18.00;99.90
19952;DHT22;10137;49.406;19.484;2022-08-21T00:47:59;18.00;99.90
19952;DHT22;10137;49.406;19.484;2022-08-21T00:50:31;18.00;99.90
19952;DHT22;10137;49.406;19.484;2022-08-21T00:53:00;17.90;99.90
19952;DHT22;10137;49.406;19.484;2022-08-21T00:55:29;18.00;99.90
19952;DHT22;10137;49.406;19.484;2022-08-21T00:57:59;17.90;99.90
19952;DHT22;10137;49.406;19.484;2022-08-21T01:00:31;18.00;99.90
19952;DHT22;10137;49.406;19.484;2022-08-21T01:03:00;18.00;99.90
19952;DHT22;10137;49.406;19.484;2022-08-21T01:05:27;17.90;99.90
19952;DHT22;10137;49.406;19.484;2022-08-21T01:07:54;17.90;99.90
19952;DHT22;10137;49.406;19.484;2022-08-21T01:10:22;17.90;99.90
19952;DHT22;10137;49.406;19.484;2022-08-21T01:12:50;17.90;99.90
19952;DHT22;10137;49.406;19.484;2022-08-21T01:15:18;17.90;99.90
19952;DHT22;10137;49.406;19.484;2022-08-21T01:17:48;17.90;99.90
19952;DHT22;10137;49.406;19.484;2022-08-21T01:20:15;17.90;99.90
19952;DHT22;10137;49.406;19.484;2022-08-21T01:22:44;17.90;99.90
19952;DHT22;10137;49.406;19.484;2022-08-21T01:25:14;17.90;99.90
19952;DHT22;10137;49.406;19.484;2022-08-21T01:27:41;17.90;99.90
19952;DHT22;10137;49.406;19.484;2022-08-21T01:30:11;17.90;99.90
19952;DHT22;10137;49.406;19.484;2022-08-21T01:32:39;17.90;99.90
19952;DHT22;10137;49.406;19.484;2022-08-21T01:35:07;17.80;99.90
19952;DHT22;10137;49.406;19.484;2022-08-21T01:37:34;17.80;99.90
19952;DHT22;10137;49.406;19.484;2022-08-21T01:40:04;17.90;99.90
19952;DHT22;10137;49.406;19.484;2022-08-21T01:42:31;17.80;99.90
19952;DHT22;10137;49.406;19.484;2022-08-21T01:44:58;17.80;99.90
19952;DHT22;10137;49.406;19.484;2022-08-21T01:47:25;17.80;99.90
19952;DHT22;10137;49.406;19.484;2022-08-21T01:49:53;17.80;99.90
19952;DHT22;10137;49.406;19.484;2022-08-21T01:52:20;17.80;99.90
19952;DHT22;10137;49.406;19.484;2022-08-21T01:54:47;17.80;99.90
19952;DHT22;10137;49.406;19.484;2022-08-21T01:57:16;17.90;99.90
19952;DHT22;10137;49.406;19.484;2022-08-21T01:59:43;17.90;99.90
19952;DHT22;10137;49.406;19.484;2022-08-21T02:02:10;17.90;99.90
19952;DHT22;10137;49.406;19.484;2022-08-21T02:04:37;17.90;99.90
19952;DHT22;10137;49.406;19.484;2022-08-21T02:07:04;17.90;99.90
19952;DHT22;10137;49.406;19.484;2022-08-21T02:09:31;17.90;99.90
19952;DHT22;10137;49.406;19.484;2022-08-21T02:11:58;17.90;99.90
19952;DHT22;10137;49.406;19.484;2022-08-21T02:14:26;17.90;99.90
19952;DHT22;10137;49.406;19.484;2022-08-21T02:16:53;17.90;99.90
19952;DHT22;10137;49.406;19.484;2022-08-21T02:19:20;17.90;99.90
19952;DHT22;10137;49.406;19.484;2022-08-21T02:21:47;17.90;99.90
19952;DHT22;10137;49.406;19.484;2022-08-21T02:24:14;17.90;99.90
19952;DHT22;10137;49.406;19.484;2022-08-21T02:26:41;17.90;99.90
19952;DHT22;10137;49.406;19.484;2022-08-21T02:29:08;18.00;99.90
19952;DHT22;10137;49.406;19.484;2022-08-21T02:31:37;17.90;99.90
19952;DHT22;10137;49.406;19.484;2022-08-21T02:34:04;17.90;99.90
19952;DHT22;10137;49.406;19.484;2022-08-21T02:36:31;17.90;99.90
19952;DHT22;10137;49.406;19.484;2022-08-21T02:38:58;17.90;99.90
19952;DHT22;10137;49.406;19.484;2022-08-21T02:41:25;17.80;99.90
19952;DHT22;10137;49.406;19.484;2022-08-21T02:43:52;17.90;99.90
19952;DHT22;10137;49.406;19.484;2022-08-21T02:46:20;17.90;99.90
19952;DHT22;10137;49.406;19.484;2022-08-21T02:48:49;17.90;99.90
19952;DHT22;10137;49.406;19.484;2022-08-21T02:51:18;17.90;99.90
19952;DHT22;10137;49.406;19.484;2022-08-21T02:53:47;17.90;99.90
19952;DHT22;10137;49.406;19.484;2022-08-21T02:56:16;17.90;99.90
19952;DHT22;10137;49.406;19.484;2022-08-21T02:58:45;17.90;99.90
19952;DHT22;10137;49.406;19.484;2022-08-21T03:01:13;17.90;99.90
19952;DHT22;10137;49.406;19.484;2022-08-21T03:03:42;17.90;99.90
19952;DHT22;10137;49.406;19.484;2022-08-21T03:06:13;17.90;99.90
19952;DHT22;10137;49.406;19.484;2022-08-21T03:08:41;17.90;99.90
19952;DHT22;10137;49.406;19.484;2022-08-21T03:11:10;17.90;99.90
19952;DHT22;10137;49.406;19.484;2022-08-21T03:13:38;17.80;99.90
19952;DHT22;10137;49.406;19.484;2022-08-21T03:16:05;17.90;99.90
19952;DHT22;10137;49.406;19.484;2022-08-21T03:18:33;17.80;99.90
19952;DHT22;10137;49.406;19.484;2022-08-21T03:21:00;17.90;99.90
19952;DHT22;10137;49.406;19.484;2022-08-21T03:23:29;17.90;99.90
19952;DHT22;10137;49.406;19.484;2022-08-21T03:25:57;17.90;99.90
19952;DHT22;10137;49.406;19.484;2022-08-21T03:28:24;17.90;99.90
19952;DHT22;10137;49.406;19.484;2022-08-21T03:30:52;17.90;99.90
19952;DHT22;10137;49.406;19.484;2022-08-21T03:33:20;17.90;99.90
19952;DHT22;10137;49.406;19.484;2022-08-21T03:35:53;17.90;99.90
19952;DHT22;10137;49.406;19.484;2022-08-21T03:38:21;17.90;99.90
19952;DHT22;10137;49.406;19.484;2022-08-21T03:40:49;18.00;99.90
19952;DHT22;10137;49.406;19.484;2022-08-21T03:43:16;18.00;99.90
19952;DHT22;10137;49.406;19.484;2022-08-21T03:45:43;18.00;99.90
19952;DHT22;10137;49.406;19.484;2022-08-21T03:48:11;18.00;99.90
19952;DHT22;10137;49.406;19.484;2022-08-21T03:50:41;18.00;99.90
19952;DHT22;10137;49.406;19.484;2022-08-21T03:53:09;18.10;99.90
19952;DHT22;10137;49.406;19.484;2022-08-21T03:55:37;18.00;99.90
19952;DHT22;10137;49.406;19.484;2022-08-21T03:58:05;18.10;99.90
19952;DHT22;10137;49.406;19.484;2022-08-21T04:00:32;18.10;99.90
19952;DHT22;10137;49.406;19.484;2022-08-21T04:02:59;18.10;99.90
19952;DHT22;10137;49.406;19.484;2022-08-21T04:05:26;18.10;99.90
19952;DHT22;10137;49.406;19.484;2022-08-21T04:07:57;18.10;99.90
19952;DHT22;10137;49.406;19.484;2022-08-21T04:10:26;18.10;99.90
19952;DHT22;10137;49.406;19.484;2022-08-21T04:12:54;18.10;99.90
19952;DHT22;10137;49.406;19.484;2022-08-21T04:15:24;18.10;99.90
19952;DHT22;10137;49.406;19.484;2022-08-21T04:17:52;18.10;99.90
19952;DHT22;10137;49.406;19.484;2022-08-21T04:20:20;18.10;99.90
19952;DHT22;10137;49.406;19.484;2022-08-21T04:22:47;18.10;99.90
19952;DHT22;10137;49.406;19.484;2022-08-21T04:25:15;18.20;99.90
19952;DHT22;10137;49.406;19.484;2022-08-21T04:27:43;18.20;99.90
19952;DHT22;10137;49.406;19.484;2022-08-21T04:30:12;18.20;99.90
19952;DHT22;10137;49.406;19.484;2022-08-21T04:32:43;18.20;99.90
19952;DHT22;10137;49.406;19.484;2022-08-21T04:35:11;18.20;99.90
19952;DHT22;10137;49.406;19.484;2022-08-21T04:37:40;18.30;99.90
19952;DHT22;10137;49.406;19.484;2022-08-21T04:40:09;18.30;99.90
19952;DHT22;10137;49.406;19.484;2022-08-21T04:42:42;18.20;99.90
19952;DHT22;10137;49.406;19.484;2022-08-21T04:45:14;18.20;99.90
19952;DHT22;10137;49.406;19.484;2022-08-21T04:47:43;18.30;99.90
19952;DHT22;10137;49.406;19.484;2022-08-21T04:50:10;18.30;99.90
19952;DHT22;10137;49.406;19.484;2022-08-21T04:52:37;18.30;99.90
19952;DHT22;10137;49.406;19.484;2022-08-21T04:55:05;18.40;99.90
19952;DHT22;10137;49.406;19.484;2022-08-21T04:57:34;18.30;99.90
19952;DHT22;10137;49.406;19.484;2022-08-21T05:00:02;18.30;99.90
19952;DHT22;10137;49.406;19.484;2022-08-21T05:02:31;18.40;99.90
19952;DHT22;10137;49.406;19.484;2022-08-21T05:05:00;18.40;99.90
19952;DHT22;10137;49.406;19.484;2022-08-21T05:07:29;18.40;99.90
19952;DHT22;10137;49.406;19.484;2022-08-21T05:09:58;18.40;99.90
19952;DHT22;10137;49.406;19.484;2022-08-21T05:12:25;18.50;99.90
19952;DHT22;10137;49.406;19.484;2022-08-21T05:14:52;18.50;99.90
19952;DHT22;10137;49.406;19.484;2022-08-21T05:17:19;18.50;99.90
19952;DHT22;10137;49.406;19.484;2022-08-21T05:19:46;18.50;99.90
19952;DHT22;10137;49.406;19.484;2022-08-21T05:22:20;18.50;99.90
19952;DHT22;10137;49.406;19.484;2022-08-21T05:24:47;18.50;99.90
19952;DHT22;10137;49.406;19.484;2022-08-21T05:27:14;18.60;99.90
19952;DHT22;10137;49.406;19.484;2022-08-21T05:29:42;18.60;99.90
19952;DHT22;10137;49.406;19.484;2022-08-21T05:32:10;18.60;99.90
19952;DHT22;10137;49.406;19.484;2022-08-21T05:34:37;18.60;99.90
19952;DHT22;10137;49.406;19.484;2022-08-21T05:37:04;18.70;99.90
19952;DHT22;10137;49.406;19.484;2022-08-21T05:39:33;18.70;99.90
19952;DHT22;10137;49.406;19.484;2022-08-21T05:41:59;18.80;99.90
19952;DHT22;10137;49.406;19.484;2022-08-21T05:44:27;18.70;99.90
19952;DHT22;10137;49.406;19.484;2022-08-21T05:46:54;18.80;99.90
19952;DHT22;10137;49.406;19.484;2022-08-21T05:49:21;18.80;99.90
19952;DHT22;10137;49.406;19.484;2022-08-21T05:51:48;18.90;99.90
19952;DHT22;10137;49.406;19.484;2022-08-21T05:54:15;18.90;99.90
19952;DHT22;10137;49.406;19.484;2022-08-21T05:56:43;19.00;99.90
19952;DHT22;10137;49.406;19.484;2022-08-21T05:59:11;19.00;99.90
19952;DHT22;10137;49.406;19.484;2022-08-21T06:01:39;19.00;99.90
19952;DHT22;10137;49.406;19.484;2022-08-21T06:04:06;19.10;99.90
19952;DHT22;10137;49.406;19.484;2022-08-21T06:06:34;19.10;99.90
19952;DHT22;10137;49.406;19.484;2022-08-21T06:09:01;19.20;99.90
19952;DHT22;10137;49.406;19.484;2022-08-21T06:11:28;19.20;99.90
19952;DHT22;10137;49.406;19.484;2022-08-21T06:13:57;19.20;99.90
19952;DHT22;10137;49.406;19.484;2022-08-21T06:16:24;19.30;99.90
19952;DHT22;10137;49.406;19.484;2022-08-21T06:18:52;19.40;99.90
19952;DHT22;10137;49.406;19.484;2022-08-21T06:21:19;19.40;99.90
19952;DHT22;10137;49.406;19.484;2022-08-21T06:23:46;19.50;99.90
19952;DHT22;10137;49.406;19.484;2022-08-21T06:26:14;19.40;99.90
19952;DHT22;10137;49.406;19.484;2022-08-21T06:28:42;19.40;99.90
19952;DHT22;10137;49.406;19.484;2022-08-21T06:31:16;19.40;99.90
19952;DHT22;10137;49.406;19.484;2022-08-21T06:33:43;19.50;99.90
19952;DHT22;10137;49.406;19.484;2022-08-21T06:36:11;19.50;99.90
19952;DHT22;10137;49.406;19.484;2022-08-21T06:38:38;19.50;99.90
19952;DHT22;10137;49.406;19.484;2022-08-21T06:41:06;19.50;99.90
19952;DHT22;10137;49.406;19.484;2022-08-21T06:43:33;19.50;99.90
19952;DHT22;10137;49.406;19.484;2022-08-21T06:46:00;19.40;99.90
19952;DHT22;10137;49.406;19.484;2022-08-21T06:48:29;19.40;99.90
19952;DHT22;10137;49.406;19.484;2022-08-21T06:50:58;19.40;99.90
19952;DHT22;10137;49.406;19.484;2022-08-21T06:53:25;19.40;99.90
19952;DHT22;10137;49.406;19.484;2022-08-21T06:55:53;19.50;99.90
19952;DHT22;10137;49.406;19.484;2022-08-21T06:58:20;19.50;99.90
19952;DHT22;10137;49.406;19.484;2022-08-21T07:00:48;19.50;99.90
19952;DHT22;10137;49.406;19.484;2022-08-21T07:03:22;19.50;99.90
19952;DHT22;10137;49.406;19.484;2022-08-21T07:05:51;19.50;99.90
19952;DHT22;10137;49.406;19.484;2022-08-21T07:08:18;19.60;99.90
19952;DHT22;10137;49.406;19.484;2022-08-21T07:10:45;19.60;99.90
19952;DHT22;10137;49.406;19.484;2022-08-21T07:13:13;19.60;99.90
19952;DHT22;10137;49.406;19.484;2022-08-21T07:15:41;19.70;99.90
19952;DHT22;10137;49.406;19.484;2022-08-21T07:18:08;19.70;99.90
19952;DHT22;10137;49.406;19.484;2022-08-21T07:20:34;19.70;99.90
19952;DHT22;10137;49.406;19.484;2022-08-21T07:23:05;19.80;99.90
19952;DHT22;10137;49.406;19.484;2022-08-21T07:25:33;19.80;99.90
19952;DHT22;10137;49.406;19.484;2022-08-21T07:28:00;19.80;99.90
19952;DHT22;10137;49.406;19.484;2022-08-21T07:30:27;19.80;99.90
19952;DHT22;10137;49.406;19.484;2022-08-21T07:32:55;19.80;99.90
19952;DHT22;10137;49.406;19.484;2022-08-21T07:35:22;19.90;99.90
19952;DHT22;10137;49.406;19.484;2022-08-21T07:37:49;19.90;99.90
19952;DHT22;10137;49.406;19.484;2022-08-21T07:40:18;20.00;99.90
19952;DHT22;10137;49.406;19.484;2022-08-21T07:42:47;20.00;99.90
19952;DHT22;10137;49.406;19.484;2022-08-21T07:45:18;20.10;99.90
19952;DHT22;10137;49.406;19.484;2022-08-21T07:47:46;20.10;99.90
19952;DHT22;10137;49.406;19.484;2022-08-21T07:50:14;20.20;99.90
19952;DHT22;10137;49.406;19.484;2022-08-21T07:52:41;20.20;99.90
19952;DHT22;10137;49.406;19.484;2022-08-21T07:55:10;20.30;99.90
19952;DHT22;10137;49.406;19.484;2022-08-21T07:57:39;20.30;99.90
19952;DHT22;10137;49.406;19.484;2022-08-21T08:00:09;20.30;99.90
19952;DHT22;10137;49.406;19.484;2022-08-21T08:02:37;20.40;99.90
19952;DHT22;10137;49.406;19.484;2022-08-21T08:05:07;20.40;99.90
19952;DHT22;10137;49.406;19.484;2022-08-21T08:07:34;20.40;99.90
19952;DHT22;10137;49.406;19.484;2022-08-21T08:10:02;20.40;99.90
19952;DHT22;10137;49.406;19.484;2022-08-21T08:12:29;20.40;99.90
19952;DHT22;10137;49.406;19.484;2022-08-21T08:14:58;20.40;99.90
19952;DHT22;10137;49.406;19.484;2022-08-21T08:17:25;20.30;99.90
19952;DHT22;10137;49.406;19.484;2022-08-21T08:19:53;20.40;99.90
19952;DHT22;10137;49.406;19.484;2022-08-21T08:22:22;20.40;99.90
19952;DHT22;10137;49.406;19.484;2022-08-21T08:24:50;20.50;99.90
19952;DHT22;10137;49.406;19.484;2022-08-21T08:27:18;20.50;99.90
19952;DHT22;10137;49.406;19.484;2022-08-21T08:29:45;20.60;99.90
19952;DHT22;10137;49.406;19.484;2022-08-21T08:32:14;20.60;99.90
19952;DHT22;10137;49.406;19.484;2022-08-21T08:34:41;20.60;99.90
19952;DHT22;10137;49.406;19.484;2022-08-21T08:37:09;20.70;99.90
19952;DHT22;10137;49.406;19.484;2022-08-21T08:39:36;20.70;99.90
19952;DHT22;10137;49.406;19.484;2022-08-21T08:42:06;20.70;99.90
19952;DHT22;10137;49.406;19.484;2022-08-21T08:44:35;20.60;99.90
19952;DHT22;10137;49.406;19.484;2022-08-21T08:47:03;20.70;99.90
19952;DHT22;10137;49.406;19.484;2022-08-21T08:49:39;20.70;99.90
19952;DHT22;10137;49.406;19.484;2022-08-21T08:52:14;20.60;99.90
19952;DHT22;10137;49.406;19.484;2022-08-21T08:54:46;20.70;99.90
19952;DHT22;10137;49.406;19.484;2022-08-21T08:57:17;20.70;99.90
19952;DHT22;10137;49.406;19.484;2022-08-21T08:59:47;20.70;99.90
19952;DHT22;10137;49.406;19.484;2022-08-21T09:02:16;20.70;99.90
19952;DHT22;10137;49.406;19.484;2022-08-21T09:04:47;20.70;99.90
19952;DHT22;10137;49.406;19.484;2022-08-21T09:07:21;20.60;99.90
19952;DHT22;10137;49.406;19.484;2022-08-21T09:10:05;20.60;99.90
19952;DHT22;10137;49.406;19.484;2022-08-21T09:12:43;20.60;99.90
19952;DHT22;10137;49.406;19.484;2022-08-21T09:15:20;20.60;99.90
19952;DHT22;10137;49.406;19.484;2022-08-21T09:18:07;20.60;99.90
19952;DHT22;10137;49.406;19.484;2022-08-21T09:20:59;20.70;99.90
19952;DHT22;10137;49.406;19.484;2022-08-21T09:23:33;20.70;99.90
19952;DHT22;10137;49.406;19.484;2022-08-21T09:26:07;20.80;99.90
19952;DHT22;10137;49.406;19.484;2022-08-21T09:28:38;20.80;99.90
19952;DHT22;10137;49.406;19.484;2022-08-21T09:31:08;20.80;99.90
19952;DHT22;10137;49.406;19.484;2022-08-21T09:33:37;20.90;99.90
19952;DHT22;10137;49.406;19.484;2022-08-21T09:36:06;20.90;99.90
19952;DHT22;10137;49.406;19.484;2022-08-21T09:38:35;21.00;99.90
19952;DHT22;10137;49.406;19.484;2022-08-21T09:41:05;21.10;99.90
19952;DHT22;10137;49.406;19.484;2022-08-21T09:43:34;21.10;99.90
19952;DHT22;10137;49.406;19.484;2022-08-21T09:46:07;21.20;99.90
19952;DHT22;10137;49.406;19.484;2022-08-21T09:48:44;21.40;99.90
19952;DHT22;10137;49.406;19.484;2022-08-21T09:51:14;21.60;99.90
19952;DHT22;10137;49.406;19.484;2022-08-21T09:53:45;21.70;99.90
19952;DHT22;10137;49.406;19.484;2022-08-21T09:56:27;21.90;99.90
19952;DHT22;10137;49.406;19.484;2022-08-21T09:59:17;22.10;99.90
19952;DHT22;10137;49.406;19.484;2022-08-21T10:01:47;22.30;99.90
19952;DHT22;10137;49.406;19.484;2022-08-21T10:04:14;22.40;99.90
19952;DHT22;10137;49.406;19.484;2022-08-21T10:06:43;22.40;99.90
19952;DHT22;10137;49.406;19.484;2022-08-21T10:09:11;22.40;99.90
19952;DHT22;10137;49.406;19.484;2022-08-21T10:11:42;22.40;99.90
19952;DHT22;10137;49.406;19.484;2022-08-21T10:14:18;22.40;99.90
19952;DHT22;10137;49.406;19.484;2022-08-21T10:16:55;22.40;99.90
19952;DHT22;10137;49.406;19.484;2022-08-21T10:19:32;22.40;99.90
19952;DHT22;10137;49.406;19.484;2022-08-21T10:22:14;22.40;99.90
19952;DHT22;10137;49.406;19.484;2022-08-21T10:24:51;22.50;99.90
19952;DHT22;10137;49.406;19.484;2022-08-21T10:27:25;22.40;99.90
19952;DHT22;10137;49.406;19.484;2022-08-21T10:29:59;22.50;99.90
19952;DHT22;10137;49.406;19.484;2022-08-21T10:32:43;22.50;99.90
19952;DHT22;10137;49.406;19.484;2022-08-21T10:35:14;22.40;99.90
19952;DHT22;10137;49.406;19.484;2022-08-21T10:37:55;22.40;99.90
19952;DHT22;10137;49.406;19.484;2022-08-21T10:40:29;22.40;99.90
19952;DHT22;10137;49.406;19.484;2022-08-21T10:43:06;22.40;99.90
19952;DHT22;10137;49.406;19.484;2022-08-21T10:45:46;22.30;99.90
19952;DHT22;10137;49.406;19.484;2022-08-21T10:48:22;22.40;99.90
19952;DHT22;10137;49.406;19.484;2022-08-21T10:50:54;22.40;99.90
19952;DHT22;10137;49.406;19.484;2022-08-21T10:53:40;22.30;99.90
19952;DHT22;10137;49.406;19.484;2022-08-21T10:56:15;22.30;99.90
19952;DHT22;10137;49.406;19.484;2022-08-21T10:58:47;22.30;99.90
19952;DHT22;10137;49.406;19.484;2022-08-21T11:01:20;22.30;99.90
19952;DHT22;10137;49.406;19.484;2022-08-21T11:03:52;22.20;99.90
19952;DHT22;10137;49.406;19.484;2022-08-21T11:06:24;22.10;99.90
19952;DHT22;10137;49.406;19.484;2022-08-21T11:08:56;21.90;99.90
19952;DHT22;10137;49.406;19.484;2022-08-21T11:11:27;21.80;99.90
19952;DHT22;10137;49.406;19.484;2022-08-21T11:13:59;21.60;99.90
19952;DHT22;10137;49.406;19.484;2022-08-21T11:16:35;21.50;99.90
19952;DHT22;10137;49.406;19.484;2022-08-21T11:19:08;21.40;99.90
19952;DHT22;10137;49.406;19.484;2022-08-21T11:21:44;21.30;99.90
19952;DHT22;10137;49.406;19.484;2022-08-21T11:24:24;21.20;99.90
19952;DHT22;10137;49.406;19.484;2022-08-21T11:27:01;21.10;99.90
19952;DHT22;10137;49.406;19.484;2022-08-21T11:29:33;21.00;99.90
19952;DHT22;10137;49.406;19.484;2022-08-21T11:32:14;20.80;99.90
19952;DHT22;10137;49.406;19.484;2022-08-21T11:34:54;20.70;99.90
19952;DHT22;10137;49.406;19.484;2022-08-21T11:37:38;20.60;99.90
19952;DHT22;10137;49.406;19.484;2022-08-21T11:40:13;20.50;99.90
19952;DHT22;10137;49.406;19.484;2022-08-21T11:42:48;20.40;99.90
19952;DHT22;10137;49.406;19.484;2022-08-21T11:45:24;20.20;99.90
19952;DHT22;10137;49.406;19.484;2022-08-21T11:48:00;20.20;99.90
19952;DHT22;10137;49.406;19.484;2022-08-21T11:50:32;20.00;99.90
19952;DHT22;10137;49.406;19.484;2022-08-21T11:53:08;20.00;99.90
19952;DHT22;10137;49.406;19.484;2022-08-21T11:55:41;19.80;99.90
19952;DHT22;10137;49.406;19.484;2022-08-21T11:58:15;19.70;99.90
19952;DHT22;10137;49.406;19.484;2022-08-21T12:00:48;19.60;99.90
19952;DHT22;10137;49.406;19.484;2022-08-21T12:03:24;19.50;99.90
19952;DHT22;10137;49.406;19.484;2022-08-21T12:05:53;19.50;99.90
19952;DHT22;10137;49.406;19.484;2022-08-21T12:08:28;19.30;99.90
19952;DHT22;10137;49.406;19.484;2022-08-21T12:11:06;19.20;99.90
19952;DHT22;10137;49.406;19.484;2022-08-21T12:13:37;19.10;99.90
19952;DHT22;10137;49.406;19.484;2022-08-21T12:16:10;19.10;99.90
19952;DHT22;10137;49.406;19.484;2022-08-21T12:18:37;19.00;99.90
19952;DHT22;10137;49.406;19.484;2022-08-21T12:21:19;19.00;99.90
19952;DHT22;10137;49.406;19.484;2022-08-21T12:23:48;19.00;99.90
19952;DHT22;10137;49.406;19.484;2022-08-21T12:26:27;18.90;99.90
19952;DHT22;10137;49.406;19.484;2022-08-21T12:29:16;18.80;99.90
19952;DHT22;10137;49.406;19.484;2022-08-21T12:31:50;18.80;99.90
19952;DHT22;10137;49.406;19.484;2022-08-21T12:34:18;18.80;99.90
19952;DHT22;10137;49.406;19.484;2022-08-21T12:36:52;18.80;99.90
19952;DHT22;10137;49.406;19.484;2022-08-21T12:39:23;18.80;99.90
19952;DHT22;10137;49.406;19.484;2022-08-21T12:41:58;18.60;99.90
19952;DHT22;10137;49.406;19.484;2022-08-21T12:44:32;18.60;99.90
19952;DHT22;10137;49.406;19.484;2022-08-21T12:47:05;18.60;99.90
19952;DHT22;10137;49.406;19.484;2022-08-21T12:49:35;18.60;99.90
19952;DHT22;10137;49.406;19.484;2022-08-21T12:52:09;18.60;99.90
19952;DHT22;10137;49.406;19.484;2022-08-21T12:54:39;18.50;99.90
19952;DHT22;10137;49.406;19.484;2022-08-21T12:57:18;18.40;99.90
19952;DHT22;10137;49.406;19.484;2022-08-21T12:59:45;18.40;99.90
19952;DHT22;10137;49.406;19.484;2022-08-21T13:02:17;18.40;99.90
19952;DHT22;10137;49.406;19.484;2022-08-21T13:04:46;18.40;99.90
19952;DHT22;10137;49.406;19.484;2022-08-21T13:07:19;18.30;99.90
19952;DHT22;10137;49.406;19.484;2022-08-21T13:09:53;18.30;99.90
19952;DHT22;10137;49.406;19.484;2022-08-21T13:12:23;18.20;99.90
19952;DHT22;10137;49.406;19.484;2022-08-21T13:14:51;18.20;99.90
19952;DHT22;10137;49.406;19.484;2022-08-21T13:17:20;18.10;99.90
19952;DHT22;10137;49.406;19.484;2022-08-21T13:19:54;18.10;99.90
19952;DHT22;10137;49.406;19.484;2022-08-21T13:22:21;18.00;99.90
19952;DHT22;10137;49.406;19.484;2022-08-21T13:24:48;18.00;99.90
19952;DHT22;10137;49.406;19.484;2022-08-21T13:27:23;18.00;99.90
19952;DHT22;10137;49.406;19.484;2022-08-21T13:30:05;18.00;99.90
19952;DHT22;10137;49.406;19.484;2022-08-21T13:32:35;18.00;99.90
19952;DHT22;10137;49.406;19.484;2022-08-21T13:35:10;17.90;99.90
19952;DHT22;10137;49.406;19.484;2022-08-21T13:37:39;17.90;99.90
19952;DHT22;10137;49.406;19.484;2022-08-21T13:40:10;17.90;99.90
19952;DHT22;10137;49.406;19.484;2022-08-21T13:42:43;17.90;99.90
19952;DHT22;10137;49.406;19.484;2022-08-21T13:45:14;17.90;99.90
19952;DHT22;10137;49.406;19.484;2022-08-21T13:47:43;17.90;99.90
19952;DHT22;10137;49.406;19.484;2022-08-21T13:50:13;18.00;99.90
19952;DHT22;10137;49.406;19.484;2022-08-21T13:52:54;18.00;99.90
19952;DHT22;10137;49.406;19.484;2022-08-21T13:55:23;18.00;99.90
19952;DHT22;10137;49.406;19.484;2022-08-21T13:58:00;18.00;99.90
19952;DHT22;10137;49.406;19.484;2022-08-21T14:00:29;17.90;99.90
19952;DHT22;10137;49.406;19.484;2022-08-21T14:03:02;17.90;99.90
19952;DHT22;10137;49.406;19.484;2022-08-21T14:05:32;17.90;99.90
19952;DHT22;10137;49.406;19.484;2022-08-21T14:08:04;17.80;99.90
19952;DHT22;10137;49.406;19.484;2022-08-21T14:10:35;17.90;99.90
19952;DHT22;10137;49.406;19.484;2022-08-21T14:13:06;17.90;99.90
19952;DHT22;10137;49.406;19.484;2022-08-21T14:15:34;17.80;99.90
19952;DHT22;10137;49.406;19.484;2022-08-21T14:18:09;17.80;99.90
19952;DHT22;10137;49.406;19.484;2022-08-21T14:20:41;17.70;99.90
19952;DHT22;10137;49.406;19.484;2022-08-21T14:23:09;17.80;99.90
19952;DHT22;10137;49.406;19.484;2022-08-21T14:25:39;17.70;99.90
19952;DHT22;10137;49.406;19.484;2022-08-21T14:28:15;17.70;99.90
19952;DHT22;10137;49.406;19.484;2022-08-21T14:30:47;17.80;99.90
19952;DHT22;10137;49.406;19.484;2022-08-21T14:33:20;17.70;99.90
19952;DHT22;10137;49.406;19.484;2022-08-21T14:35:49;17.60;99.90
19952;DHT22;10137;49.406;19.484;2022-08-21T14:38:18;17.60;99.90
19952;DHT22;10137;49.406;19.484;2022-08-21T14:40:49;17.60;99.90
19952;DHT22;10137;49.406;19.484;2022-08-21T14:43:19;17.60;99.90
19952;DHT22;10137;49.406;19.484;2022-08-21T14:45:48;17.50;99.90
19952;DHT22;10137;49.406;19.484;2022-08-21T14:48:15;17.50;99.90
19952;DHT22;10137;49.406;19.484;2022-08-21T14:50:43;17.50;99.90
19952;DHT22;10137;49.406;19.484;2022-08-21T14:53:10;17.50;99.90
19952;DHT22;10137;49.406;19.484;2022-08-21T14:55:38;17.50;99.90
19952;DHT22;10137;49.406;19.484;2022-08-21T14:58:21;17.50;99.90
19952;DHT22;10137;49.406;19.484;2022-08-21T15:00:51;17.50;99.90
19952;DHT22;10137;49.406;19.484;2022-08-21T15:03:22;17.50;99.90
19952;DHT22;10137;49.406;19.484;2022-08-21T15:05:49;17.60;99.90
19952;DHT22;10137;49.406;19.484;2022-08-21T15:08:16;17.50;99.90
19952;DHT22;10137;49.406;19.484;2022-08-21T15:10:45;17.60;99.90
19952;DHT22;10137;49.406;19.484;2022-08-21T15:13:13;17.50;99.90
19952;DHT22;10137;49.406;19.484;2022-08-21T15:15:45;17.50;99.90
19952;DHT22;10137;49.406;19.484;2022-08-21T15:18:14;17.50;99.90
19952;DHT22;10137;49.406;19.484;2022-08-21T15:20:41;17.50;99.90
19952;DHT22;10137;49.406;19.484;2022-08-21T15:23:09;17.60;99.90
19952;DHT22;10137;49.406;19.484;2022-08-21T15:25:40;17.60;99.90
19952;DHT22;10137;49.406;19.484;2022-08-21T15:28:09;17.60;99.90
19952;DHT22;10137;49.406;19.484;2022-08-21T15:30:38;17.60;99.90
19952;DHT22;10137;49.406;19.484;2022-08-21T15:33:08;17.60;99.90